Airfield :
LOGIN :

Register | Disclaimer

   EN    FR    IT 

 










Legend :    VFR   Marginal VFR   IFR   Intensive IFR   Very Intensive IFR
Visi :
Ceiling :
>= 8 km
>= 3000ft
5 to 8 km
1000 to 3000 ft
1500m to 5 km
500 to 1000 ft
800 to 1500m
200 to 500 ft
< 800m
< 200 ft
Symbols :   Thunderstorms  Fog  Heavy snow  Heavy precipitations  Wind > 20 kt
SIGMETs :     Misc.  Thunderstorms  Icing  Turbulence  Mountain Waves  Volcanic Ashes






- Airport Elevation : 5600 ft
- IATA code : SMV


LSZS - Samedan

CURRENT METAR :
  • 301550Z 21014KT 9999 FEW040 SCT070 20/11 Q1018 RMK U TL170

EXPIRED METARs :
  • 301520Z 22015KT 9999 FEW035 SCT070 20/10 Q1019 RMK T TL170
  • 301450Z 22015KT 9999 FEW035 BKN073 20/12 Q1019 RMK S TL170
  • 301420Z 22015KT 9999 FEW035 BKN073 20/12 Q1019 RMK R TL170
  • 301350Z 23015KT 9999 FEW040 SCT075 22/11 Q1019 RMK Q TL170
  • 301320Z 22013KT 9999 FEW040 SCT075 21/12 Q1019 RMK P TL170

TAF TAF LSZS
Valid from the 30 at 15:00 until the 01 at 00:00 UTC


301425Z 3015/3024 21015KT 9999 FEW040 SCT075 TX21/3015Z
BECMG 3017/3019 21005KT
PROB30
TEMPO 3018/3021 SHRA FEW030TCU
ATIS : +41 81 834 93 24



MET'MAP, your aeronautical weather chart ! - Copyright ORBIFLY December 2007 - Disclaimer

ORBIFLY MET'MAP TEAM :

Programming & Development : Alexandra Zaïnal
Original concept : Baudouin d'Aumeries
Technical & hardware support : Manuel Goepfert
Assistance : Marc-Olivier Méhu




SOURCES & CREDITS :

   NOAA